< < Back
Terminal Aerodrome Forecast


Current Version              Previous Versions:   1  2  3  4  5  6  7  8  9  

Terminal Aerodrome Forecast

244
FTUS42 KMLB 032349 RRA
TAFMCO
TAF
KMCO 032349Z 0400/0424 24009KT P6SM FEW015 SCT030 BKN120
     FM041300 22007KT P6SM SCT030 SCT100 OVC250
     FM041900 24009KT P6SM VCTS SCT035CB BKN100
      TEMPO 0420/0423 4SM TSRA BKN030CB BKN070=



Latest METAR

638
SAUS70 KWBC 041100
MTRMCO
METAR KMCO 041053Z 20006KT 10SM FEW020 FEW100 SCT250 24/23 A3004


USA.gov is the U.S. government's official web portal to all federal, state and local government web resources and services.